createdAt,value
2023-05-14T00:00:49.636Z,1.17
2023-05-14T00:01:49.419Z,1.16
2023-05-14T00:02:49.483Z,1.15
2023-05-14T00:03:49.526Z,1.14
2023-05-14T00:04:49.536Z,1.14
2023-05-14T00:05:49.598Z,1.14
2023-05-14T00:06:49.654Z,1.14
2023-05-14T00:07:49.732Z,1.14
2023-05-14T00:08:49.800Z,1.16
2023-05-14T00:09:49.892Z,1.14
2023-05-14T00:10:49.941Z,1.14
2023-05-14T00:11:51.189Z,1.14
2023-05-14T00:12:50.028Z,1.12
2023-05-14T00:13:50.078Z,1.15
2023-05-14T00:14:50.121Z,1.14
2023-05-14T00:15:50.192Z,1.14
2023-05-14T00:16:50.214Z,1.14
2023-05-14T00:17:51.088Z,1.13
2023-05-14T00:18:50.341Z,1.14
2023-05-14T00:19:50.367Z,1.13
2023-05-14T00:20:50.383Z,1.12
2023-05-14T00:21:50.427Z,1.14
2023-05-14T00:22:50.711Z,1.15
2023-05-14T00:23:50.509Z,1.14
2023-05-14T00:24:50.561Z,1.14
2023-05-14T00:25:50.847Z,1.13
2023-05-14T00:26:50.647Z,1.14
2023-05-14T00:27:50.713Z,1.14
2023-05-14T00:28:50.768Z,1.13
2023-05-14T00:29:50.837Z,1.12
2023-05-14T00:30:51.156Z,1.14
2023-05-14T00:31:51.094Z,1.13
2023-05-14T00:32:51.021Z,1.14
2023-05-14T00:33:51.022Z,1.13
2023-05-14T00:34:51.049Z,1.13
2023-05-14T00:35:51.112Z,1.13
2023-05-14T00:36:51.169Z,1.13
2023-05-14T00:37:51.230Z,1.12
2023-05-14T00:38:52.133Z,1.13
2023-05-14T00:39:51.337Z,1.14
2023-05-14T00:40:51.442Z,1.12
2023-05-14T00:41:51.464Z,1.14
2023-05-14T00:42:51.501Z,1.15
2023-05-14T00:43:52.367Z,1.14
2023-05-14T00:44:51.614Z,1.15
2023-05-14T00:45:51.934Z,1.13
2023-05-14T00:46:51.850Z,1.14
2023-05-14T00:47:52.208Z,1.13
2023-05-14T00:48:51.857Z,1.13
2023-05-14T00:49:51.934Z,1.14
2023-05-14T00:50:52.020Z,1.12
2023-05-14T00:51:52.093Z,1.13
2023-05-14T00:52:52.167Z,1.14
2023-05-14T00:53:52.264Z,1.14
2023-05-14T00:54:52.348Z,1.14
2023-05-14T00:55:52.389Z,1.13
2023-05-14T00:56:52.450Z,1.14
2023-05-14T00:57:53.749Z,1.14
2023-05-14T00:58:52.681Z,1.14
2023-05-14T00:59:52.622Z,1.14
2023-05-14T01:00:52.741Z,1.14
2023-05-14T01:01:53.554Z,1.14
2023-05-14T01:02:52.898Z,1.12
2023-05-14T01:03:52.859Z,1.15
2023-05-14T01:04:52.858Z,1.13
2023-05-14T01:05:52.901Z,1.13
2023-05-14T01:06:52.958Z,1.13
2023-05-14T01:07:52.986Z,1.15
2023-05-14T01:08:53.043Z,1.13
2023-05-14T01:09:53.109Z,1.13
2023-05-14T01:10:53.170Z,1.12
2023-05-14T01:11:53.226Z,1.13
2023-05-14T01:12:53.296Z,1.14
2023-05-14T01:13:53.327Z,1.12
2023-05-14T01:14:53.366Z,1.11
2023-05-14T01:15:53.394Z,1.14
2023-05-14T01:16:53.826Z,1.11
2023-05-14T01:17:53.510Z,1.12
2023-05-14T01:18:53.595Z,1.11
2023-05-14T01:19:53.582Z,1.13
2023-05-14T01:20:53.596Z,1.13
2023-05-14T01:21:53.648Z,1.12
2023-05-14T01:22:53.940Z,1.14
2023-05-14T01:23:53.698Z,1.12
2023-05-14T01:24:53.757Z,1.13
2023-05-14T01:25:53.771Z,1.12
2023-05-14T01:26:53.814Z,1.13
2023-05-14T01:27:53.845Z,1.12
2023-05-14T01:28:53.894Z,1.13
2023-05-14T01:29:53.940Z,1.12
2023-05-14T01:30:53.991Z,1.12
2023-05-14T01:31:54.061Z,1.13
2023-05-14T01:32:54.090Z,1.12
2023-05-14T01:33:54.139Z,1.11
2023-05-14T01:34:54.146Z,1.11
2023-05-14T01:35:54.906Z,1.11
2023-05-14T01:36:54.216Z,1.12
2023-05-14T01:37:54.270Z,1.12
2023-05-14T01:38:54.307Z,1.13
2023-05-14T01:39:54.342Z,1.13
2023-05-14T01:40:54.390Z,1.12
2023-05-14T01:41:54.433Z,1.12
2023-05-14T01:42:56.717Z,1.11
2023-05-14T01:43:54.504Z,1.11
2023-05-14T01:44:54.568Z,1.10
2023-05-14T01:45:54.660Z,1.15
2023-05-14T01:46:54.639Z,1.10
2023-05-14T01:47:54.707Z,1.10
2023-05-14T01:48:54.718Z,1.11
2023-05-14T01:49:55.792Z,1.13
2023-05-14T01:50:54.915Z,1.11
2023-05-14T01:51:54.846Z,1.12
2023-05-14T01:52:54.883Z,1.11
2023-05-14T01:53:54.929Z,1.12
2023-05-14T01:54:54.955Z,1.12
2023-05-14T01:55:55.005Z,1.10
2023-05-14T01:56:55.058Z,1.09
2023-05-14T01:57:55.083Z,1.11
2023-05-14T01:58:56.150Z,1.11
2023-05-14T01:59:55.165Z,1.12
2023-05-14T02:00:55.219Z,1.12
2023-05-14T02:01:55.248Z,1.12
2023-05-14T02:02:55.497Z,1.12
2023-05-14T02:03:55.410Z,1.10
2023-05-14T02:04:55.360Z,1.11
2023-05-14T02:05:55.405Z,1.10
2023-05-14T02:06:55.470Z,1.12
2023-05-14T02:07:55.500Z,1.11
2023-05-14T02:08:55.558Z,1.11
2023-05-14T02:09:55.595Z,1.11
2023-05-14T02:10:55.630Z,1.12
2023-05-14T02:11:55.656Z,1.11
2023-05-14T02:12:55.701Z,1.11
2023-05-14T02:13:55.759Z,1.12
2023-05-14T02:14:55.791Z,1.09
2023-05-14T02:15:55.887Z,1.11
2023-05-14T02:16:56.162Z,1.10
2023-05-14T02:17:56.095Z,1.12
2023-05-14T02:18:56.034Z,1.10
2023-05-14T02:19:55.950Z,1.11
2023-05-14T02:20:55.970Z,1.11
2023-05-14T02:21:56.139Z,1.12
2023-05-14T02:22:56.019Z,1.12
2023-05-14T02:23:56.055Z,1.11
2023-05-14T02:24:56.087Z,1.11
2023-05-14T02:25:56.114Z,1.12
2023-05-14T02:26:56.134Z,1.10
2023-05-14T02:27:56.178Z,1.11
2023-05-14T02:28:56.213Z,1.12
2023-05-14T02:29:56.246Z,1.10
2023-05-14T02:30:56.297Z,1.11
2023-05-14T02:31:56.358Z,1.10
2023-05-14T02:32:56.457Z,1.10
2023-05-14T02:33:56.400Z,1.12
2023-05-14T02:34:57.389Z,1.12
2023-05-14T02:35:56.485Z,1.11
2023-05-14T02:36:56.535Z,1.13
2023-05-14T02:37:56.593Z,1.12
2023-05-14T02:38:56.620Z,1.12
2023-05-14T02:39:57.691Z,1.10
2023-05-14T02:40:56.692Z,1.10
2023-05-14T02:41:56.729Z,1.13
2023-05-14T02:42:56.760Z,1.11
2023-05-14T02:43:56.870Z,1.10
2023-05-14T02:44:56.844Z,1.11
2023-05-14T02:45:56.890Z,1.10
2023-05-14T02:46:56.943Z,1.12
2023-05-14T02:47:56.999Z,1.11
2023-05-14T02:48:57.037Z,1.12
2023-05-14T02:49:57.064Z,1.09
2023-05-14T02:50:57.134Z,1.11
2023-05-14T02:51:57.183Z,1.11
2023-05-14T02:52:57.220Z,1.09
2023-05-14T02:53:57.248Z,1.10
2023-05-14T02:54:57.263Z,1.11
2023-05-14T02:55:57.311Z,1.10
2023-05-14T02:56:57.329Z,1.10
2023-05-14T02:57:57.387Z,1.10
2023-05-14T02:58:57.438Z,1.11
2023-05-14T02:59:57.438Z,1.11
2023-05-14T03:00:57.645Z,1.11
2023-05-14T03:01:57.597Z,1.11
2023-05-14T03:02:57.638Z,1.10
2023-05-14T03:03:59.683Z,1.11
2023-05-14T03:04:57.666Z,1.11
2023-05-14T03:05:57.936Z,1.10
2023-05-14T03:06:57.748Z,1.10
2023-05-14T03:07:57.774Z,1.09
2023-05-14T03:08:57.821Z,1.08
2023-05-14T03:09:57.878Z,1.12
2023-05-14T03:10:57.926Z,1.11
2023-05-14T03:11:57.975Z,1.09
2023-05-14T03:12:57.996Z,1.10
2023-05-14T03:13:58.010Z,1.10
2023-05-14T03:14:58.023Z,1.11
2023-05-14T03:15:58.059Z,1.10
2023-05-14T03:16:58.158Z,1.10
2023-05-14T03:17:58.222Z,1.11
2023-05-14T03:18:58.247Z,1.09
2023-05-14T03:19:58.232Z,1.11
2023-05-14T03:20:58.300Z,1.11
2023-05-14T03:21:58.329Z,1.10
2023-05-14T03:23:00.167Z,1.10
2023-05-14T03:23:58.388Z,1.10
2023-05-14T03:24:58.415Z,1.10
2023-05-14T03:25:58.445Z,1.10
2023-05-14T03:27:00.649Z,1.09
2023-05-14T03:27:58.535Z,1.10
2023-05-14T03:28:58.582Z,1.09
2023-05-14T03:29:58.602Z,1.09
2023-05-14T03:30:58.722Z,1.09
2023-05-14T03:31:58.687Z,1.10
2023-05-14T03:32:58.739Z,1.08
2023-05-14T03:33:58.769Z,1.09
2023-05-14T03:34:58.789Z,1.09
2023-05-14T03:35:58.848Z,1.09
2023-05-14T03:36:59.242Z,1.09
2023-05-14T03:37:58.916Z,1.10
2023-05-14T03:38:58.939Z,1.11
2023-05-14T03:39:58.961Z,1.10
2023-05-14T03:40:59.004Z,1.09
2023-05-14T03:41:59.034Z,1.08
2023-05-14T03:42:59.069Z,1.08
2023-05-14T03:43:59.120Z,1.09
2023-05-14T03:44:59.119Z,1.07
2023-05-14T03:45:59.153Z,1.09
2023-05-14T03:46:59.181Z,1.09
2023-05-14T03:47:59.298Z,1.09
2023-05-14T03:48:59.242Z,1.09
2023-05-14T03:49:59.188Z,1.09
2023-05-14T03:50:59.207Z,1.09
2023-05-14T03:51:59.226Z,1.09
2023-05-14T03:52:59.258Z,1.09
2023-05-14T03:53:59.286Z,1.08
2023-05-14T03:54:59.303Z,1.08
2023-05-14T03:55:59.336Z,1.09
2023-05-14T03:56:59.742Z,1.08
2023-05-14T03:57:59.375Z,1.08
2023-05-14T03:58:59.384Z,1.08
2023-05-14T03:59:59.414Z,1.08
2023-05-14T04:00:59.440Z,1.09
2023-05-14T04:01:59.474Z,1.10
2023-05-14T04:02:59.592Z,1.08
2023-05-14T04:03:59.537Z,1.07
2023-05-14T04:04:59.548Z,1.09
2023-05-14T04:05:59.592Z,1.09
2023-05-14T04:06:59.629Z,1.08
2023-05-14T04:07:59.656Z,1.11
2023-05-14T04:08:59.695Z,1.10
2023-05-14T04:10:01.150Z,1.09
2023-05-14T04:11:00.437Z,1.09
2023-05-14T04:12:00.046Z,1.10
2023-05-14T04:12:59.966Z,1.10
2023-05-14T04:13:59.752Z,1.11
2023-05-14T04:14:59.764Z,1.10
2023-05-14T04:15:59.822Z,1.10
2023-05-14T04:17:00.345Z,1.09
2023-05-14T04:17:59.778Z,1.07
2023-05-14T04:19:00.850Z,1.09
2023-05-14T04:19:59.728Z,1.08
2023-05-14T04:20:59.744Z,1.08
2023-05-14T04:22:01.694Z,1.08
2023-05-14T04:22:59.720Z,1.08
2023-05-14T04:23:59.726Z,1.10
2023-05-14T04:24:59.717Z,1.08
2023-05-14T04:25:59.735Z,1.08
2023-05-14T04:26:59.730Z,1.08
2023-05-14T04:27:59.729Z,1.08
2023-05-14T04:28:59.720Z,1.07
2023-05-14T04:29:59.727Z,1.08
2023-05-14T04:30:59.744Z,1.09
2023-05-14T04:31:59.839Z,1.10
2023-05-14T04:32:59.766Z,1.09
2023-05-14T04:33:59.753Z,1.09
2023-05-14T04:34:59.765Z,1.07
2023-05-14T04:35:59.793Z,1.08
2023-05-14T04:36:59.760Z,1.08
2023-05-14T04:37:59.757Z,1.09
2023-05-14T04:38:59.752Z,1.08
2023-05-14T04:39:59.767Z,1.08
2023-05-14T04:40:59.785Z,1.07
2023-05-14T04:41:59.795Z,1.07
2023-05-14T04:42:59.810Z,1.07
2023-05-14T04:43:59.811Z,1.07
2023-05-14T04:44:59.835Z,1.07
2023-05-14T04:45:59.914Z,1.07
2023-05-14T04:46:59.892Z,1.06
2023-05-14T04:47:59.944Z,1.07
2023-05-14T04:48:59.962Z,1.06
2023-05-14T04:50:01.172Z,1.08
2023-05-14T04:51:00.153Z,1.07
2023-05-14T04:52:00.050Z,1.07
2023-05-14T04:53:00.048Z,1.07
2023-05-14T04:54:00.082Z,1.09
2023-05-14T04:55:00.113Z,1.08
2023-05-14T04:56:00.148Z,1.06
2023-05-14T04:57:00.448Z,1.08
2023-05-14T04:58:00.174Z,1.07
2023-05-14T04:59:00.198Z,1.07
2023-05-14T05:00:00.237Z,1.07
2023-05-14T05:01:00.482Z,1.07
2023-05-14T05:02:00.397Z,1.08
2023-05-14T05:03:00.528Z,1.08
2023-05-14T05:04:00.525Z,1.07
2023-05-14T05:05:00.608Z,1.06
2023-05-14T05:06:00.498Z,1.08
2023-05-14T05:07:00.589Z,1.07
2023-05-14T05:08:01.738Z,1.06
2023-05-14T05:09:01.939Z,1.07
2023-05-14T05:10:00.786Z,1.06
2023-05-14T05:11:00.691Z,1.06
2023-05-14T05:12:01.004Z,1.08
2023-05-14T05:13:00.746Z,1.08
2023-05-14T05:14:00.793Z,1.05
2023-05-14T05:15:01.087Z,1.08
2023-05-14T05:16:01.836Z,1.06
2023-05-14T05:17:00.895Z,1.07
2023-05-14T05:18:00.996Z,1.06
2023-05-14T05:19:01.015Z,1.06
2023-05-14T05:20:01.021Z,1.06
2023-05-14T05:21:01.104Z,1.04
2023-05-14T05:22:01.123Z,1.06
2023-05-14T05:23:01.164Z,1.05
2023-05-14T05:24:01.187Z,1.07
2023-05-14T05:25:01.248Z,1.07
2023-05-14T05:26:01.303Z,1.04
2023-05-14T05:27:01.380Z,1.06
2023-05-14T05:28:01.395Z,1.05
2023-05-14T05:29:01.427Z,1.07
2023-05-14T05:30:01.491Z,1.06
2023-05-14T05:31:01.547Z,1.07
2023-05-14T05:32:01.569Z,1.06
2023-05-14T05:33:01.632Z,1.05
2023-05-14T05:34:01.654Z,1.04
2023-05-14T05:35:01.708Z,1.04
2023-05-14T05:36:01.730Z,1.06
2023-05-14T05:37:01.768Z,1.05
2023-05-14T05:38:01.991Z,1.06
2023-05-14T05:39:01.856Z,1.05
2023-05-14T05:40:01.903Z,1.05
2023-05-14T05:41:01.942Z,1.04
2023-05-14T05:42:01.979Z,1.05
2023-05-14T05:43:01.994Z,1.05
2023-05-14T05:44:02.020Z,1.03
2023-05-14T05:45:02.093Z,1.05
2023-05-14T05:46:02.143Z,1.06
2023-05-14T05:47:02.168Z,1.05
2023-05-14T05:48:02.198Z,1.05
2023-05-14T05:49:02.151Z,1.05
2023-05-14T05:50:02.204Z,1.05
2023-05-14T05:51:02.199Z,1.05
2023-05-14T05:52:02.225Z,1.05
2023-05-14T05:53:02.245Z,1.04
2023-05-14T05:54:02.266Z,1.05
2023-05-14T05:55:02.309Z,1.05
2023-05-14T05:56:02.351Z,1.04
2023-05-14T05:57:02.380Z,1.05
2023-05-14T05:58:02.399Z,1.05
2023-05-14T05:59:02.435Z,1.05
2023-05-14T06:00:02.511Z,1.04
2023-05-14T06:01:02.603Z,1.05
2023-05-14T06:02:02.612Z,1.05
2023-05-14T06:03:02.676Z,1.06
2023-05-14T06:04:02.696Z,1.06
2023-05-14T06:05:02.759Z,1.04
2023-05-14T06:06:02.715Z,1.05
2023-05-14T06:07:03.106Z,1.03
2023-05-14T06:08:02.728Z,1.06
2023-05-14T06:09:02.748Z,1.03
2023-05-14T06:10:02.763Z,1.05
2023-05-14T06:11:02.791Z,1.04
2023-05-14T06:12:03.151Z,1.03
2023-05-14T06:13:02.863Z,1.03
2023-05-14T06:14:02.898Z,1.03
2023-05-14T06:15:02.947Z,1.03
2023-05-14T06:16:03.016Z,1.05
2023-05-14T06:17:03.011Z,1.03
2023-05-14T06:18:03.155Z,1.05
2023-05-14T06:19:03.209Z,1.05
2023-05-14T06:20:03.106Z,1.03
2023-05-14T06:21:03.169Z,1.03
2023-05-14T06:22:03.215Z,1.04
2023-05-14T06:23:03.209Z,1.04
2023-05-14T06:24:03.438Z,1.04
2023-05-14T06:25:03.219Z,1.04
2023-05-14T06:26:03.243Z,1.04
2023-05-14T06:27:03.216Z,1.06
2023-05-14T06:28:03.208Z,1.06
2023-05-14T06:29:03.223Z,1.04
2023-05-14T06:30:03.216Z,1.04
2023-05-14T06:31:03.220Z,1.06
2023-05-14T06:32:03.256Z,1.04
2023-05-14T06:33:03.269Z,1.03
2023-05-14T06:34:03.236Z,1.05
2023-05-14T06:35:03.256Z,1.04
2023-05-14T06:36:03.298Z,1.03
2023-05-14T06:37:03.340Z,1.03
2023-05-14T06:38:03.352Z,1.04
2023-05-14T06:39:03.397Z,1.03
2023-05-14T06:40:04.150Z,1.04
2023-05-14T06:41:03.443Z,1.04
2023-05-14T06:42:03.474Z,1.02
2023-05-14T06:43:03.513Z,1.02
2023-05-14T06:44:03.555Z,1.03
2023-05-14T06:45:04.753Z,1.04
2023-05-14T06:46:03.635Z,1.03
2023-05-14T06:47:03.690Z,1.05
2023-05-14T06:48:03.783Z,1.03
2023-05-14T06:49:03.801Z,1.02
2023-05-14T06:50:04.885Z,1.03
2023-05-14T06:51:03.814Z,1.03
2023-05-14T06:52:03.858Z,1.02
2023-05-14T06:53:03.896Z,1.02
2023-05-14T06:54:03.951Z,1.03
2023-05-14T06:55:03.990Z,1.04
2023-05-14T06:56:04.015Z,1.02
2023-05-14T06:57:04.083Z,1.03
2023-05-14T06:58:04.122Z,1.02
2023-05-14T06:59:04.170Z,1.03
2023-05-14T07:00:04.195Z,1.03
2023-05-14T07:01:04.290Z,1.02
2023-05-14T07:02:04.296Z,1.02
2023-05-14T07:03:05.159Z,1.04
2023-05-14T07:04:04.403Z,1.01
2023-05-14T07:05:04.411Z,1.03
2023-05-14T07:06:04.450Z,1.04
2023-05-14T07:07:04.483Z,1.03
2023-05-14T07:08:04.521Z,1.00
2023-05-14T07:09:04.563Z,1.02
2023-05-14T07:10:04.642Z,1.02
2023-05-14T07:11:05.875Z,1.03
2023-05-14T07:12:04.793Z,1.01
2023-05-14T07:13:04.856Z,1.04
2023-05-14T07:14:04.908Z,1.03
2023-05-14T07:15:04.966Z,1.02
2023-05-14T07:16:05.014Z,1.01
2023-05-14T07:17:05.136Z,1.03
2023-05-14T07:18:05.165Z,1.01
2023-05-14T07:19:05.514Z,1.02
2023-05-14T07:20:05.335Z,1.01
2023-05-14T07:21:05.246Z,1.02
2023-05-14T07:22:05.320Z,1.02
2023-05-14T07:23:05.373Z,1.00
2023-05-14T07:24:05.633Z,1.00
2023-05-14T07:25:05.451Z,0.99
2023-05-14T07:26:05.520Z,0.99
2023-05-14T07:27:05.638Z,0.99
2023-05-14T07:28:05.632Z,1.01
2023-05-14T07:29:05.681Z,1.00
2023-05-14T07:30:05.729Z,0.99
2023-05-14T07:31:07.748Z,1.00
2023-05-14T07:32:05.853Z,1.01
2023-05-14T07:33:05.946Z,0.99
2023-05-14T07:34:05.941Z,1.00
2023-05-14T07:35:05.996Z,0.99
2023-05-14T07:36:06.032Z,0.99
2023-05-14T07:37:06.100Z,0.99
2023-05-14T07:38:06.149Z,0.99
2023-05-14T07:39:06.235Z,0.98
2023-05-14T07:40:06.298Z,1.00
2023-05-14T07:41:06.605Z,0.99
2023-05-14T07:42:06.427Z,0.98
2023-05-14T07:43:06.479Z,0.98
2023-05-14T07:44:06.553Z,0.98
2023-05-14T07:45:06.609Z,0.98
2023-05-14T07:46:06.657Z,1.00
2023-05-14T07:47:06.753Z,0.98
2023-05-14T07:48:06.878Z,0.98
2023-05-14T07:49:06.834Z,0.97
2023-05-14T07:50:06.894Z,0.97
2023-05-14T07:51:06.956Z,0.96
2023-05-14T07:52:07.018Z,0.98
2023-05-14T07:53:07.083Z,0.97
2023-05-14T07:54:07.150Z,0.97
2023-05-14T07:55:07.206Z,0.98
2023-05-14T07:56:07.254Z,0.98
2023-05-14T07:57:07.326Z,0.97
2023-05-14T07:58:07.397Z,0.98
2023-05-14T07:59:07.465Z,0.95
2023-05-14T08:00:07.524Z,0.97
2023-05-14T08:01:07.597Z,0.96
2023-05-14T08:02:07.674Z,0.97
2023-05-14T08:03:07.833Z,0.95
2023-05-14T08:04:08.048Z,0.95
2023-05-14T08:05:07.842Z,0.96
2023-05-14T08:06:07.903Z,0.96
2023-05-14T08:07:07.977Z,0.95
2023-05-14T08:08:08.025Z,0.94
2023-05-14T08:09:08.082Z,0.95
2023-05-14T08:10:10.340Z,0.95
2023-05-14T08:11:08.368Z,0.94
2023-05-14T08:12:08.276Z,0.97
2023-05-14T08:13:08.326Z,0.95
2023-05-14T08:14:08.397Z,0.94
2023-05-14T08:15:08.466Z,0.94
2023-05-14T08:16:08.531Z,0.93
2023-05-14T08:17:08.728Z,0.94
2023-05-14T08:18:08.678Z,0.93
2023-05-14T08:19:08.803Z,0.94
2023-05-14T08:20:08.774Z,0.93
2023-05-14T08:21:08.809Z,0.93
2023-05-14T08:22:08.862Z,0.93
2023-05-14T08:23:08.915Z,0.93
2023-05-14T08:24:08.988Z,0.94
2023-05-14T08:25:09.386Z,0.94
2023-05-14T08:26:09.053Z,0.96
2023-05-14T08:27:09.437Z,0.95
2023-05-14T08:28:09.136Z,0.94
2023-05-14T08:29:10.681Z,0.94
2023-05-14T08:30:09.224Z,0.93
2023-05-14T08:31:09.285Z,0.93
2023-05-14T08:32:22.166Z,0.92
2023-05-14T08:33:10.297Z,0.92
2023-05-14T08:34:09.266Z,0.93
2023-05-14T08:35:09.260Z,0.93
2023-05-14T08:36:09.260Z,0.94
2023-05-14T08:37:09.266Z,0.94
2023-05-14T08:38:10.039Z,0.94
2023-05-14T08:39:09.262Z,0.93
2023-05-14T08:40:09.239Z,0.93
2023-05-14T08:41:09.241Z,0.93
2023-05-14T08:42:09.229Z,0.95
2023-05-14T08:43:09.229Z,0.94
2023-05-14T08:44:09.234Z,0.93
2023-05-14T08:45:09.242Z,0.93
2023-05-14T08:46:09.224Z,0.94
2023-05-14T08:47:09.968Z,0.93
2023-05-14T08:48:09.358Z,0.93
2023-05-14T08:49:09.334Z,0.94
2023-05-14T08:50:09.286Z,0.94
2023-05-14T08:51:09.188Z,0.94
2023-05-14T08:52:09.200Z,0.93
2023-05-14T08:53:09.287Z,0.93
2023-05-14T08:54:09.202Z,0.94
2023-05-14T08:55:09.219Z,0.93
2023-05-14T08:56:09.245Z,0.94
2023-05-14T08:57:09.271Z,0.94
2023-05-14T08:58:09.288Z,0.95
2023-05-14T08:59:09.303Z,0.93
2023-05-14T09:00:09.342Z,0.94
2023-05-14T09:01:09.977Z,0.95
2023-05-14T09:02:09.457Z,0.95
2023-05-14T09:03:09.441Z,0.95
2023-05-14T09:04:10.134Z,0.95
2023-05-14T09:05:09.432Z,0.96
2023-05-14T09:06:09.466Z,0.96
2023-05-14T09:07:09.499Z,0.97
2023-05-14T09:08:09.506Z,0.98
2023-05-14T09:09:09.542Z,0.98
2023-05-14T09:10:09.581Z,0.98
2023-05-14T09:11:10.868Z,0.98
2023-05-14T09:12:09.634Z,0.99
2023-05-14T09:13:09.650Z,0.98
2023-05-14T09:14:09.689Z,0.98
2023-05-14T09:15:09.709Z,0.96
2023-05-14T09:16:09.871Z,0.99
2023-05-14T09:17:09.858Z,0.98
2023-05-14T09:18:09.802Z,1.01
2023-05-14T09:19:09.827Z,1.00
2023-05-14T09:20:09.849Z,1.00
2023-05-14T09:21:09.846Z,0.99
2023-05-14T09:22:09.884Z,0.99
2023-05-14T09:23:09.896Z,1.00
2023-05-14T09:24:09.959Z,1.00
2023-05-14T09:25:09.957Z,1.00
2023-05-14T09:26:09.996Z,0.99
2023-05-14T09:27:10.010Z,1.00
2023-05-14T09:28:10.802Z,1.00
2023-05-14T09:29:10.048Z,1.00
2023-05-14T09:30:10.106Z,0.99
2023-05-14T09:31:10.166Z,0.99
2023-05-14T09:32:10.162Z,0.99
2023-05-14T09:33:10.258Z,0.98
2023-05-14T09:34:10.221Z,0.98
2023-05-14T09:35:10.276Z,0.99
2023-05-14T09:36:10.298Z,0.97
2023-05-14T09:37:10.346Z,0.98
2023-05-14T09:38:10.382Z,0.97
2023-05-14T09:39:10.421Z,0.97
2023-05-14T09:40:10.453Z,0.97
2023-05-14T09:41:10.472Z,0.97
2023-05-14T09:42:10.500Z,0.98
2023-05-14T09:43:10.529Z,0.96
2023-05-14T09:44:10.549Z,0.97
2023-05-14T09:45:10.604Z,0.97
2023-05-14T09:46:10.644Z,0.97
2023-05-14T09:47:10.745Z,0.97
2023-05-14T09:48:10.894Z,0.98
2023-05-14T09:49:10.770Z,0.97
2023-05-14T09:50:10.804Z,0.96
2023-05-14T09:51:10.853Z,0.96
2023-05-14T09:52:10.893Z,0.96
2023-05-14T09:53:10.919Z,0.96
2023-05-14T09:54:10.940Z,0.98
2023-05-14T09:55:10.997Z,0.97
2023-05-14T09:56:11.027Z,0.95
2023-05-14T09:57:11.055Z,0.96
2023-05-14T09:58:11.077Z,0.96
2023-05-14T09:59:12.358Z,0.96
2023-05-14T10:00:11.124Z,0.97
2023-05-14T10:01:11.223Z,0.96
2023-05-14T10:02:11.210Z,0.96
2023-05-14T10:03:11.304Z,0.97
2023-05-14T10:04:11.346Z,0.97
2023-05-14T10:05:11.309Z,0.97
2023-05-14T10:06:11.353Z,0.97
2023-05-14T10:07:11.372Z,0.97
2023-05-14T10:08:11.404Z,0.97
2023-05-14T10:09:11.449Z,0.97
2023-05-14T10:10:11.487Z,0.97
2023-05-14T10:11:11.520Z,0.98
2023-05-14T10:12:11.560Z,0.96
2023-05-14T10:13:11.568Z,0.96
2023-05-14T10:14:11.622Z,0.97
2023-05-14T10:15:11.629Z,0.96
2023-05-14T10:16:11.700Z,0.96
2023-05-14T10:17:11.834Z,0.96
2023-05-14T10:18:11.809Z,0.96
2023-05-14T10:19:11.890Z,0.95
2023-05-14T10:20:11.851Z,0.96
2023-05-14T10:21:11.860Z,0.97
2023-05-14T10:22:11.915Z,0.97
2023-05-14T10:23:11.961Z,0.96
2023-05-14T10:24:11.969Z,0.97
2023-05-14T10:25:12.002Z,0.97
2023-05-14T10:26:12.056Z,0.96
2023-05-14T10:27:12.110Z,0.96
2023-05-14T10:28:12.135Z,0.96
2023-05-14T10:29:12.170Z,0.97
2023-05-14T10:30:12.214Z,0.96
2023-05-14T10:31:12.289Z,0.95
2023-05-14T10:32:12.281Z,0.96
2023-05-14T10:33:12.448Z,0.96
2023-05-14T10:34:12.370Z,0.96
2023-05-14T10:35:12.413Z,0.96
2023-05-14T10:36:12.426Z,0.96
2023-05-14T10:37:12.466Z,0.96
2023-05-14T10:38:12.508Z,0.97
2023-05-14T10:39:12.531Z,0.97
2023-05-14T10:40:12.584Z,0.96
2023-05-14T10:41:12.613Z,0.96
2023-05-14T10:42:12.649Z,0.96
2023-05-14T10:43:12.695Z,0.96
2023-05-14T10:44:12.732Z,0.97
2023-05-14T10:45:14.600Z,0.97
2023-05-14T10:46:12.830Z,0.96
2023-05-14T10:47:12.854Z,0.97
2023-05-14T10:48:12.922Z,0.96
2023-05-14T10:49:12.925Z,0.97
2023-05-14T10:50:12.953Z,0.97
2023-05-14T10:51:13.230Z,0.96
2023-05-14T10:52:13.038Z,0.96
2023-05-14T10:53:13.062Z,0.97
2023-05-14T10:54:13.094Z,0.96
2023-05-14T10:55:13.138Z,0.96
2023-05-14T10:56:13.165Z,0.96
2023-05-14T10:57:13.194Z,0.96
2023-05-14T10:58:13.229Z,0.97
2023-05-14T10:59:13.249Z,0.97
2023-05-14T11:00:13.306Z,0.97
2023-05-14T11:01:13.366Z,0.97
2023-05-14T11:02:13.364Z,0.96
2023-05-14T11:03:13.521Z,0.96
2023-05-14T11:04:13.488Z,0.96
2023-05-14T11:05:13.386Z,0.97
2023-05-14T11:06:13.436Z,0.96
2023-05-14T11:07:13.434Z,0.96
2023-05-14T11:08:13.460Z,0.96
2023-05-14T11:09:13.479Z,0.96
2023-05-14T11:10:13.519Z,0.97
2023-05-14T11:11:13.538Z,0.97
2023-05-14T11:12:13.550Z,0.97
2023-05-14T11:13:13.579Z,0.96
2023-05-14T11:14:13.613Z,0.97
2023-05-14T11:15:13.637Z,0.95
2023-05-14T11:16:22.712Z,0.96
2023-05-14T11:17:14.727Z,0.96
2023-05-14T11:18:13.739Z,0.96
2023-05-14T11:19:13.895Z,0.96
2023-05-14T11:20:13.666Z,0.96
2023-05-14T11:21:13.677Z,0.96
2023-05-14T11:22:13.708Z,0.96
2023-05-14T11:23:13.668Z,0.96
2023-05-14T11:24:13.673Z,0.96
2023-05-14T11:25:13.660Z,0.96
2023-05-14T11:26:13.747Z,0.97
2023-05-14T11:27:13.651Z,0.95
2023-05-14T11:28:13.658Z,0.95
2023-05-14T11:29:13.674Z,0.96
2023-05-14T11:30:13.677Z,0.96
2023-05-14T11:31:13.709Z,0.96
2023-05-14T11:32:13.659Z,0.96
2023-05-14T11:33:13.758Z,0.96
2023-05-14T11:34:13.691Z,0.96
2023-05-14T11:35:13.674Z,0.96
2023-05-14T11:36:13.679Z,0.97
2023-05-14T11:37:13.681Z,0.96
2023-05-14T11:38:13.685Z,0.96
2023-05-14T11:39:13.705Z,0.96
2023-05-14T11:40:13.742Z,0.96
2023-05-14T11:41:13.765Z,0.95
2023-05-14T11:42:13.801Z,0.95
2023-05-14T11:43:13.840Z,0.95
2023-05-14T11:44:13.887Z,0.96
2023-05-14T11:45:13.927Z,0.95
2023-05-14T11:46:14.016Z,0.95
2023-05-14T11:47:13.978Z,0.94
2023-05-14T11:48:14.038Z,0.95
2023-05-14T11:49:14.053Z,0.95
2023-05-14T11:50:14.092Z,0.94
2023-05-14T11:51:14.096Z,0.94
2023-05-14T11:52:14.145Z,0.95
2023-05-14T11:53:14.226Z,0.95
2023-05-14T11:54:14.212Z,0.95
2023-05-14T11:55:14.225Z,0.94
2023-05-14T11:56:14.262Z,0.94
2023-05-14T11:57:14.286Z,0.94
2023-05-14T11:58:14.326Z,0.95
2023-05-14T11:59:14.363Z,0.94
2023-05-14T12:00:14.431Z,0.94
2023-05-14T12:01:14.436Z,0.94
2023-05-14T12:02:14.506Z,0.93
2023-05-14T12:03:14.553Z,0.95
2023-05-14T12:04:15.468Z,0.95
2023-05-14T12:05:14.557Z,0.95
2023-05-14T12:06:14.585Z,0.94
2023-05-14T12:07:14.616Z,0.95
2023-05-14T12:08:14.647Z,0.95
2023-05-14T12:09:14.685Z,0.95
2023-05-14T12:10:14.751Z,0.93
2023-05-14T12:11:14.750Z,0.94
2023-05-14T12:12:14.788Z,0.93
2023-05-14T12:13:14.808Z,0.94
2023-05-14T12:14:14.855Z,0.94
2023-05-14T12:15:14.875Z,0.94
2023-05-14T12:16:14.963Z,0.95
2023-05-14T12:17:14.934Z,0.96
2023-05-14T12:18:24.218Z,0.94
2023-05-14T12:19:15.997Z,0.94
2023-05-14T12:20:15.004Z,0.94
2023-05-14T12:21:14.956Z,0.94
2023-05-14T12:22:14.943Z,0.95
2023-05-14T12:23:14.946Z,0.95
2023-05-14T12:24:14.943Z,0.96
2023-05-14T12:25:14.943Z,0.96
2023-05-14T12:26:14.944Z,0.95
2023-05-14T12:27:14.948Z,0.95
2023-05-14T12:28:14.951Z,0.96
2023-05-14T12:29:14.941Z,0.96
2023-05-14T12:31:14.957Z,0.95
2023-05-14T12:32:14.914Z,0.97
2023-05-14T12:33:14.917Z,0.95
2023-05-14T12:34:14.911Z,0.94
2023-05-14T12:35:14.920Z,0.94
2023-05-14T12:36:21.691Z,0.94
2023-05-14T12:37:15.913Z,0.94
2023-05-14T12:38:14.909Z,0.95
2023-05-14T12:39:14.906Z,0.95
2023-05-14T12:40:14.978Z,0.95
2023-05-14T12:41:14.915Z,0.96
2023-05-14T12:42:16.933Z,0.96
2023-05-14T12:43:14.911Z,0.96
2023-05-14T12:44:14.897Z,0.96
2023-05-14T12:45:14.892Z,0.96
2023-05-14T12:46:14.907Z,0.96
2023-05-14T12:47:15.025Z,0.96
2023-05-14T12:48:14.949Z,0.96
2023-05-14T12:49:16.023Z,0.96
2023-05-14T12:50:14.888Z,0.95
2023-05-14T12:51:14.898Z,0.95
2023-05-14T12:52:25.751Z,0.95
2023-05-14T12:53:15.910Z,0.95
2023-05-14T12:54:14.896Z,0.95
2023-05-14T12:55:14.928Z,0.95
2023-05-14T12:56:14.915Z,0.95
2023-05-14T12:57:14.897Z,0.96
2023-05-14T12:58:14.901Z,0.96
2023-05-14T12:59:14.915Z,0.95
2023-05-14T13:00:14.935Z,0.98
2023-05-14T13:01:14.939Z,0.96
2023-05-14T13:02:17.287Z,0.96
2023-05-14T13:03:16.073Z,0.95
2023-05-14T13:04:15.118Z,0.96
2023-05-14T13:05:15.107Z,0.96
2023-05-14T13:06:15.138Z,0.96
2023-05-14T13:07:15.176Z,0.97
2023-05-14T13:08:15.227Z,0.96
2023-05-14T13:09:15.304Z,0.95
2023-05-14T13:10:15.328Z,0.97
2023-05-14T13:11:15.377Z,0.96
2023-05-14T13:12:15.442Z,0.97
2023-05-14T13:13:15.956Z,0.96
2023-05-14T13:14:15.525Z,0.97
2023-05-14T13:15:15.571Z,0.97
2023-05-14T13:16:15.619Z,0.96
2023-05-14T13:17:15.630Z,0.97
2023-05-14T13:18:15.697Z,0.96
2023-05-14T13:19:15.878Z,0.96
2023-05-14T13:20:15.906Z,0.96